Share

San Ygnacio, TX (78067)

5:35 PM CDT on April 24, 2014 (GMT -0500)
Zapata (KAPY) Elev 423 ft | 26.97 °N, 99.25 °W | Change Station

Current weather conditions updated 20 minutes ago

Clear
Clear
94 °F
Feels Like 93 °F
N
15
Wind Variable Wind from NNE
Sunrise 7:05 AM
Sunset 8:06 PM
Moon Waning Crescent

Tomorrow is forecast to be Warmer than today.

Pressure 29.76 in
Visibility 10.0 miles
Clouds Clear
Heat Index 93 °F
Dew Point 59 °F
Humidity 31%
Rainfall 0.00 in
Snow Depth Not available.
UV 4 out of 16
Pollen 8.00 out of 12
Air Quality Not available.
Flu Activity Local Activity
METAR KAPY 242215Z AUTO 02013KT 10SM CLR 34/15 A2976 RMK AO2 T03430151

More Conditions Fewer Conditions

Pressure 29.76 in
Visibility 10.0 miles
Clouds Clear
Heat Index 93 °F
Dew Point 59 °F
Humidity 31%
Rainfall 0.00 in
Snow Depth Not available.
UV 4 out of 16
Pollen 8.00 out of 12
Air Quality Not available.
Flu Activity Local Activity
METAR KAPY 242215Z AUTO 02013KT 10SM CLR 34/15 A2976 RMK AO2 T03430151

More Conditions Fewer Conditions

10-Day Weather Forecast

Almanac

Astronomy

Apr. 24, 2014 Rise Set
Actual Time 7:05 AM CDT 8:06 PM CDT
Civil Twilight 6:40 AM CDT 8:31 PM CDT
Nautical Twilight 6:12 AM CDT 8:59 PM CDT
Astronomical Twilight 5:42 AM CDT 9:29 PM CDT
Moon 3:49 AM CDT 3:49 PM CDT
Length of Visible Light 13h 50m
Length of Day
13h 01m
Tomorrow will be 1m 26s longer.
Waning Crescent, 22% of the Moon is Illuminated
Today
Waning Crescent
Apr 29
New
May 6
First Quarter
May 14
Full
May 21
Last Quarter

Today's Extremes

State Highs State Lows

Community

  • Jone Runs Falls
    Jone Runs Falls
  • Easter in Shenandoah National Park
    Easter in Shenandoah National Park
  • Sunset at Apalachicola Bay, Florida
    Sunset at Apalachicola Bay, Florida
  • Clouds mov'n in
    Clouds mov'n in
  • Stacked
    Stacked

WunderPhotos

Upload Photos

1,704,732 photos uploaded!

Nearby

Snow Depth

Station Depth Elevation
No new snow has been reported.

Coastal Water Temperatures

Place Temperature
No Stations Reporting

Earthquake Activity

City Distance Mag. Time & Date
No recent earthquake activity has been reported nearby.
Minimum magnitude displayed is 2.5.

Nearby Weather Stations

There are no personal weather stations in this area.

What do you think?

We're not finished. Please let us know what you like, what you don't like, and what you are still missing.